createdAt,value
2023-04-30T00:02:09.261Z,97401.97
2023-04-30T00:04:35.904Z,97404.78
2023-04-30T00:07:02.635Z,97407.41
2023-04-30T00:09:29.245Z,97397.41
2023-04-30T00:11:55.931Z,97407.28
2023-04-30T00:14:22.555Z,97406.00
2023-04-30T00:16:49.504Z,97405.69
2023-04-30T00:19:16.185Z,97412.09
2023-04-30T00:21:42.814Z,97409.88
2023-04-30T00:24:09.488Z,97410.19
2023-04-30T00:26:36.108Z,97418.84
2023-04-30T00:29:02.691Z,97411.06
2023-04-30T00:31:29.353Z,97413.81
2023-04-30T00:33:55.994Z,97408.28
2023-04-30T00:36:22.576Z,97408.59
2023-04-30T00:38:49.176Z,97405.88
2023-04-30T00:41:15.808Z,97402.47
2023-04-30T00:43:42.459Z,97400.38
2023-04-30T00:46:09.086Z,97403.78
2023-04-30T00:48:35.727Z,97402.75
2023-04-30T00:51:02.295Z,97401.66
2023-04-30T00:53:28.915Z,97399.78
2023-04-30T00:55:55.604Z,97397.81
2023-04-30T00:58:22.214Z,97398.22
2023-04-30T01:00:48.813Z,97399.13
2023-04-30T01:03:15.507Z,97399.53
2023-04-30T01:05:42.221Z,97400.88
2023-04-30T01:08:08.786Z,97407.22
2023-04-30T01:10:35.518Z,97404.75
2023-04-30T01:13:02.129Z,97411.06
2023-04-30T01:15:28.710Z,97400.16
2023-04-30T01:17:55.490Z,97406.25
2023-04-30T01:20:22.228Z,97417.13
2023-04-30T01:22:48.852Z,97410.38
2023-04-30T01:25:15.528Z,97414.94
2023-04-30T01:27:42.151Z,97417.38
2023-04-30T01:30:08.765Z,97415.78
2023-04-30T01:32:35.758Z,97417.47
2023-04-30T01:35:03.258Z,97412.63
2023-04-30T01:37:30.046Z,97421.38
2023-04-30T01:39:56.987Z,97426.84
2023-04-30T01:42:23.774Z,97430.16
2023-04-30T01:44:50.356Z,97422.25
2023-04-30T01:47:16.965Z,97427.63
2023-04-30T01:49:43.718Z,97423.09
2023-04-30T01:52:10.375Z,97429.03
2023-04-30T01:54:36.946Z,97432.41
2023-04-30T01:57:03.635Z,97437.69
2023-04-30T01:59:30.231Z,97437.69
2023-04-30T02:01:56.832Z,97437.78
2023-04-30T02:04:23.660Z,97437.81
2023-04-30T02:06:50.433Z,97449.00
2023-04-30T02:09:17.016Z,97451.41
2023-04-30T02:11:43.597Z,97443.25
2023-04-30T02:14:10.161Z,97444.88
2023-04-30T02:16:36.814Z,97451.88
2023-04-30T02:19:03.516Z,97456.97
2023-04-30T02:21:30.093Z,97450.03
2023-04-30T02:24:00.015Z,97448.41
2023-04-30T02:26:26.707Z,97454.34
2023-04-30T02:28:53.284Z,97451.31
2023-04-30T02:31:19.933Z,97446.41
2023-04-30T02:33:46.530Z,97454.72
2023-04-30T02:36:13.132Z,97460.84
2023-04-30T02:38:39.694Z,97467.34
2023-04-30T02:41:06.284Z,97454.31
2023-04-30T02:43:32.851Z,97464.84
2023-04-30T02:45:59.501Z,97462.47
2023-04-30T02:48:26.090Z,97461.38
2023-04-30T02:50:52.681Z,97466.09
2023-04-30T02:53:19.357Z,97464.47
2023-04-30T02:55:45.956Z,97469.31
2023-04-30T02:58:12.629Z,97473.97
2023-04-30T03:00:39.245Z,97476.41
2023-04-30T03:03:05.990Z,97470.03
2023-04-30T03:05:32.643Z,97475.75
2023-04-30T03:07:59.237Z,97479.66
2023-04-30T03:10:25.829Z,97479.81
2023-04-30T03:12:53.447Z,97481.22
2023-04-30T03:15:20.029Z,97481.63
2023-04-30T03:17:47.065Z,97481.34
2023-04-30T03:20:13.646Z,97480.91
2023-04-30T03:22:40.414Z,97485.81
2023-04-30T03:25:07.004Z,97487.72
2023-04-30T03:27:33.650Z,97474.81
2023-04-30T03:30:00.255Z,97485.28
2023-04-30T03:32:26.848Z,97481.63
2023-04-30T03:34:53.453Z,97479.13
2023-04-30T03:37:20.006Z,97478.03
2023-04-30T03:39:46.662Z,97497.84
2023-04-30T03:42:13.302Z,97494.53
2023-04-30T03:44:39.913Z,97489.03
2023-04-30T03:47:06.521Z,97480.81
2023-04-30T03:49:33.422Z,97484.97
2023-04-30T03:52:00.003Z,97499.00
2023-04-30T03:54:26.617Z,97499.75
2023-04-30T03:56:53.492Z,97490.50
2023-04-30T03:59:20.192Z,97498.38
2023-04-30T04:01:46.833Z,97491.03
2023-04-30T04:04:13.705Z,97494.09
2023-04-30T04:06:40.555Z,97496.09
2023-04-30T04:09:07.289Z,97488.72
2023-04-30T04:11:33.843Z,97500.34
2023-04-30T04:14:00.431Z,97492.53
2023-04-30T04:16:27.059Z,97501.88
2023-04-30T04:18:54.079Z,97501.88
2023-04-30T04:21:20.845Z,97503.78
2023-04-30T04:23:47.475Z,97508.16
2023-04-30T04:26:14.065Z,97516.16
2023-04-30T04:28:40.763Z,97509.00
2023-04-30T04:31:07.344Z,97512.19
2023-04-30T04:33:33.950Z,97523.28
2023-04-30T04:36:00.573Z,97521.00
2023-04-30T04:38:27.126Z,97523.09
2023-04-30T04:40:53.715Z,97523.72
2023-04-30T04:43:20.371Z,97535.13
2023-04-30T04:45:46.970Z,97531.00
2023-04-30T04:48:13.590Z,97530.09
2023-04-30T04:50:40.203Z,97530.53
2023-04-30T04:53:06.777Z,97540.63
2023-04-30T04:55:33.404Z,97541.78
2023-04-30T04:57:59.998Z,97540.75
2023-04-30T05:00:26.780Z,97538.44
2023-04-30T05:02:53.543Z,97545.16
2023-04-30T05:05:20.304Z,97543.69
2023-04-30T05:07:46.925Z,97545.03
2023-04-30T05:10:13.493Z,97548.56
2023-04-30T05:12:40.095Z,97551.66
2023-04-30T05:15:06.725Z,97551.56
2023-04-30T05:17:33.446Z,97548.25
2023-04-30T05:20:00.066Z,97547.72
2023-04-30T05:22:26.667Z,97543.94
2023-04-30T05:24:53.247Z,97551.75
2023-04-30T05:27:19.875Z,97553.59
2023-04-30T05:29:46.456Z,97554.00
2023-04-30T05:32:13.252Z,97551.81
2023-04-30T05:34:39.866Z,97564.25
2023-04-30T05:37:06.470Z,97554.81
2023-04-30T05:39:33.056Z,97552.28
2023-04-30T05:41:59.648Z,97562.19
2023-04-30T05:44:26.226Z,97565.63
2023-04-30T05:46:52.834Z,97567.31
2023-04-30T05:49:19.539Z,97562.00
2023-04-30T05:51:46.143Z,97564.63
2023-04-30T05:54:13.771Z,97571.97
2023-04-30T05:56:40.400Z,97567.50
2023-04-30T05:59:06.987Z,97563.03
2023-04-30T06:01:33.643Z,97560.81
2023-04-30T06:04:00.414Z,97575.59
2023-04-30T06:06:27.069Z,97564.28
2023-04-30T06:08:53.707Z,97569.97
2023-04-30T06:11:20.302Z,97563.22
2023-04-30T06:13:46.979Z,97568.94
2023-04-30T06:16:13.636Z,97568.25
2023-04-30T06:18:40.224Z,97569.22
2023-04-30T06:21:06.831Z,97574.19
2023-04-30T06:23:33.418Z,97570.66
2023-04-30T06:25:59.991Z,97569.66
2023-04-30T06:28:26.601Z,97574.03
2023-04-30T06:30:53.219Z,97575.06
2023-04-30T06:33:19.973Z,97579.72
2023-04-30T06:35:46.575Z,97588.22
2023-04-30T06:38:13.128Z,97581.09
2023-04-30T06:40:39.729Z,97583.00
2023-04-30T06:43:06.332Z,97583.78
2023-04-30T06:45:33.112Z,97583.47
2023-04-30T06:47:59.746Z,97587.03
2023-04-30T06:50:26.540Z,97593.28
2023-04-30T06:52:53.211Z,97594.31
2023-04-30T06:55:19.799Z,97597.41
2023-04-30T06:57:46.610Z,97594.47
2023-04-30T07:00:13.211Z,97594.66
2023-04-30T07:02:39.984Z,97587.63
2023-04-30T07:05:06.676Z,97595.75
2023-04-30T07:07:33.531Z,97589.97
2023-04-30T07:10:00.221Z,97584.03
2023-04-30T07:12:26.776Z,97588.22
2023-04-30T07:14:53.390Z,97582.88
2023-04-30T07:17:20.017Z,97583.47
2023-04-30T07:19:46.596Z,97581.13
2023-04-30T07:22:13.178Z,97577.38
2023-04-30T07:24:39.802Z,97576.72
2023-04-30T07:27:06.499Z,97578.19
2023-04-30T07:29:33.096Z,97580.88
2023-04-30T07:31:59.778Z,97584.91
2023-04-30T07:34:26.415Z,97584.22
2023-04-30T07:36:53.014Z,97588.75
2023-04-30T07:39:19.614Z,97582.03
2023-04-30T07:41:46.362Z,97582.16
2023-04-30T07:44:12.979Z,97584.41
2023-04-30T07:46:39.642Z,97578.75
2023-04-30T07:49:06.284Z,97587.59
2023-04-30T07:51:32.930Z,97584.91
2023-04-30T07:53:59.563Z,97589.22
2023-04-30T07:56:26.204Z,97590.72
2023-04-30T07:58:52.826Z,97599.84
2023-04-30T08:01:19.397Z,97606.00
2023-04-30T08:03:45.962Z,97607.50
2023-04-30T08:06:12.650Z,97615.66
2023-04-30T08:08:39.303Z,97608.16
2023-04-30T08:11:05.973Z,97606.38
2023-04-30T08:13:32.738Z,97606.88
2023-04-30T08:15:59.430Z,97607.47
2023-04-30T08:18:26.038Z,97602.59
2023-04-30T08:20:52.645Z,97608.09
2023-04-30T08:23:19.269Z,97609.06
2023-04-30T08:25:46.027Z,97613.25
2023-04-30T08:28:12.597Z,97615.41
2023-04-30T08:30:39.190Z,97614.03
2023-04-30T08:33:05.868Z,97617.31
2023-04-30T08:35:32.500Z,97622.56
2023-04-30T08:37:59.119Z,97620.50
2023-04-30T08:40:43.847Z,97620.59
2023-04-30T08:43:12.297Z,97623.19
2023-04-30T08:45:38.946Z,97619.50
2023-04-30T08:48:05.561Z,97617.34
2023-04-30T08:50:32.204Z,97617.50
2023-04-30T08:52:58.786Z,97614.47
2023-04-30T08:55:25.385Z,97621.41
2023-04-30T08:57:52.049Z,97619.03
2023-04-30T09:00:18.679Z,97618.22
2023-04-30T09:02:45.477Z,97626.88
2023-04-30T09:05:12.189Z,97613.50
2023-04-30T09:07:39.913Z,97611.22
2023-04-30T09:10:08.429Z,97610.53
2023-04-30T09:12:35.018Z,97612.53
2023-04-30T09:15:01.808Z,97609.56
2023-04-30T09:17:28.414Z,97610.44
2023-04-30T09:19:55.395Z,97605.63
2023-04-30T09:22:22.169Z,97613.50
2023-04-30T09:24:48.744Z,97610.09
2023-04-30T09:27:15.418Z,97612.06
2023-04-30T09:29:42.008Z,97616.25
2023-04-30T09:32:08.599Z,97621.31
2023-04-30T09:34:35.159Z,97628.53
2023-04-30T09:37:01.789Z,97625.94
2023-04-30T09:39:28.347Z,97617.09
2023-04-30T09:41:54.971Z,97615.06
2023-04-30T09:44:21.571Z,97607.59
2023-04-30T09:46:48.175Z,97613.47
2023-04-30T09:49:15.269Z,97613.66
2023-04-30T09:51:41.882Z,97613.91
2023-04-30T09:54:08.844Z,97613.78
2023-04-30T09:56:35.405Z,97610.03
2023-04-30T09:59:02.204Z,97603.22
2023-04-30T10:01:29.019Z,97602.69
2023-04-30T10:03:55.868Z,97596.91
2023-04-30T10:06:22.567Z,97594.88
2023-04-30T10:08:49.208Z,97585.00
2023-04-30T10:11:15.860Z,97590.53
2023-04-30T10:13:42.438Z,97589.84
2023-04-30T10:16:09.068Z,97587.34
2023-04-30T10:18:35.742Z,97585.84
2023-04-30T10:21:02.309Z,97586.63
2023-04-30T10:23:28.899Z,97582.75
2023-04-30T10:25:55.463Z,97587.84
2023-04-30T10:28:22.055Z,97579.75
2023-04-30T10:30:48.667Z,97568.44
2023-04-30T10:33:16.637Z,97566.53
2023-04-30T10:35:43.644Z,97561.97
2023-04-30T10:38:10.267Z,97575.06
2023-04-30T10:40:37.406Z,97578.94
2023-04-30T10:43:04.014Z,97573.97
2023-04-30T10:45:30.619Z,97572.47
2023-04-30T10:47:57.234Z,97563.69
2023-04-30T10:50:23.849Z,97565.34
2023-04-30T10:52:50.578Z,97565.97
2023-04-30T10:55:17.203Z,97554.75
2023-04-30T10:57:43.803Z,97563.19
2023-04-30T11:00:10.537Z,97569.22
2023-04-30T11:02:37.195Z,97571.22
2023-04-30T11:05:03.797Z,97578.22
2023-04-30T11:07:30.381Z,97565.47
2023-04-30T11:09:57.192Z,97566.03
2023-04-30T11:12:24.031Z,97567.25
2023-04-30T11:14:50.639Z,97569.50
2023-04-30T11:17:17.217Z,97566.28
2023-04-30T11:19:43.845Z,97570.84
2023-04-30T11:22:10.422Z,97568.66
2023-04-30T11:24:36.990Z,97561.19
2023-04-30T11:27:05.979Z,97571.81
2023-04-30T11:29:32.711Z,97563.94
2023-04-30T11:31:59.393Z,97564.16
2023-04-30T11:34:26.147Z,97566.63
2023-04-30T11:36:52.999Z,97552.59
2023-04-30T11:39:19.621Z,97548.13
2023-04-30T11:41:46.273Z,97550.78
2023-04-30T11:44:13.005Z,97548.66
2023-04-30T11:46:39.683Z,97542.22
2023-04-30T11:49:06.361Z,97543.63
2023-04-30T11:51:32.966Z,97541.00
2023-04-30T11:53:59.525Z,97535.81
2023-04-30T11:56:26.112Z,97544.06
2023-04-30T11:58:52.678Z,97536.47
2023-04-30T12:01:19.257Z,97538.34
2023-04-30T12:03:45.957Z,97529.78
2023-04-30T12:06:12.727Z,97534.31
2023-04-30T12:08:39.356Z,97538.00
2023-04-30T12:11:05.956Z,97540.25
2023-04-30T12:13:32.674Z,97533.91
2023-04-30T12:15:59.281Z,97538.91
2023-04-30T12:18:25.844Z,97537.50
2023-04-30T12:20:52.506Z,97537.13
2023-04-30T12:23:19.094Z,97532.69
2023-04-30T12:25:45.695Z,97531.59
2023-04-30T12:28:12.253Z,97534.66
2023-04-30T12:30:38.882Z,97536.59
2023-04-30T12:33:05.803Z,97537.38
2023-04-30T12:35:32.489Z,97527.78
2023-04-30T12:37:59.114Z,97527.91
2023-04-30T12:40:25.711Z,97524.88
2023-04-30T12:42:52.301Z,97516.09
2023-04-30T12:45:18.941Z,97511.56
2023-04-30T12:47:45.571Z,97514.97
2023-04-30T12:50:12.242Z,97515.59
2023-04-30T12:52:39.646Z,97509.66
2023-04-30T12:55:06.430Z,97509.22
2023-04-30T12:57:33.028Z,97514.28
2023-04-30T12:59:59.673Z,97505.50
2023-04-30T13:02:26.332Z,97506.34
2023-04-30T13:04:52.958Z,97505.22
2023-04-30T13:07:19.562Z,97507.78
2023-04-30T13:09:46.185Z,97495.50
2023-04-30T13:12:12.761Z,97505.38
2023-04-30T13:14:39.357Z,97498.41
2023-04-30T13:17:06.032Z,97502.31
2023-04-30T13:19:32.689Z,97497.84
2023-04-30T13:21:59.270Z,97494.53
2023-04-30T13:24:25.837Z,97493.75
2023-04-30T13:26:52.448Z,97491.84
2023-04-30T13:29:19.049Z,97486.03
2023-04-30T13:31:45.836Z,97488.16
2023-04-30T13:34:12.497Z,97485.78
2023-04-30T13:36:39.126Z,97486.03
2023-04-30T13:39:05.696Z,97488.59
2023-04-30T13:41:32.272Z,97483.41
2023-04-30T13:43:59.068Z,97476.34
2023-04-30T13:46:25.731Z,97471.03
2023-04-30T13:48:52.709Z,97473.81
2023-04-30T13:51:19.278Z,97472.63
2023-04-30T13:53:46.260Z,97462.97
2023-04-30T13:56:12.814Z,97474.00
2023-04-30T13:58:39.369Z,97459.72
2023-04-30T14:01:06.376Z,97466.22
2023-04-30T14:03:33.142Z,97457.91
2023-04-30T14:05:59.841Z,97459.56
2023-04-30T14:08:26.425Z,97460.41
2023-04-30T14:10:53.062Z,97464.22
2023-04-30T14:13:19.670Z,97463.91
2023-04-30T14:15:46.270Z,97454.91
2023-04-30T14:18:12.897Z,97454.97
2023-04-30T14:20:39.571Z,97448.19
2023-04-30T14:23:06.141Z,97446.16
2023-04-30T14:25:32.745Z,97446.09
2023-04-30T14:27:59.329Z,97440.16
2023-04-30T14:30:25.918Z,97438.00
2023-04-30T14:32:52.856Z,97436.69
2023-04-30T14:35:19.501Z,97438.28
2023-04-30T14:37:46.153Z,97430.75
2023-04-30T14:40:12.715Z,97426.00
2023-04-30T14:42:39.391Z,97423.66
2023-04-30T14:45:05.992Z,97423.88
2023-04-30T14:47:32.606Z,97419.66
2023-04-30T14:49:59.222Z,97425.03
2023-04-30T14:52:25.818Z,97426.00
2023-04-30T14:54:52.413Z,97428.09
2023-04-30T14:57:18.987Z,97423.19
2023-04-30T14:59:45.601Z,97420.81
2023-04-30T15:02:12.218Z,97419.72
2023-04-30T15:04:38.936Z,97424.59
2023-04-30T15:07:05.542Z,97415.47
2023-04-30T15:09:32.131Z,97418.19
2023-04-30T15:11:58.741Z,97418.53
2023-04-30T15:14:25.378Z,97418.31
2023-04-30T15:16:51.994Z,97418.88
2023-04-30T15:19:18.595Z,97423.78
2023-04-30T15:21:46.979Z,97414.69
2023-04-30T15:24:15.232Z,97422.47
2023-04-30T15:26:41.802Z,97421.84
2023-04-30T15:29:08.452Z,97420.81
2023-04-30T15:31:35.065Z,97416.00
2023-04-30T15:34:01.719Z,97421.91
2023-04-30T15:36:28.295Z,97416.03
2023-04-30T15:38:54.901Z,97423.22
2023-04-30T15:41:21.479Z,97422.19
2023-04-30T15:43:48.109Z,97432.78
2023-04-30T15:46:14.767Z,97435.91
2023-04-30T15:48:41.394Z,97432.41
2023-04-30T15:51:08.018Z,97427.16
2023-04-30T15:53:34.638Z,97440.00
2023-04-30T15:56:01.215Z,97439.53
2023-04-30T15:58:28.051Z,97442.50
2023-04-30T16:00:54.627Z,97443.75
2023-04-30T16:03:21.360Z,97442.97
2023-04-30T16:05:48.024Z,97438.28
2023-04-30T16:08:14.717Z,97440.22
2023-04-30T16:10:41.311Z,97441.25
2023-04-30T16:13:07.952Z,97453.44
2023-04-30T16:15:34.652Z,97449.13
2023-04-30T16:18:01.257Z,97446.19
2023-04-30T16:20:27.866Z,97438.25
2023-04-30T16:22:54.471Z,97437.03
2023-04-30T16:25:21.055Z,97438.53
2023-04-30T16:27:47.633Z,97441.91
2023-04-30T16:30:14.408Z,97436.56
2023-04-30T16:32:41.025Z,97436.50
2023-04-30T16:35:07.771Z,97430.84
2023-04-30T16:37:34.343Z,97440.09
2023-04-30T16:40:00.932Z,97441.56
2023-04-30T16:42:27.527Z,97443.09
2023-04-30T16:44:54.099Z,97445.16
2023-04-30T16:47:20.768Z,97449.91
2023-04-30T16:49:47.588Z,97449.59
2023-04-30T16:52:14.219Z,97450.16
2023-04-30T16:54:40.783Z,97448.69
2023-04-30T16:57:07.391Z,97453.16
2023-04-30T16:59:34.170Z,97455.63
2023-04-30T17:02:00.859Z,97453.03
2023-04-30T17:04:27.443Z,97452.47
2023-04-30T17:06:54.045Z,97459.97
2023-04-30T17:09:20.643Z,97456.88
2023-04-30T17:11:47.247Z,97459.81
2023-04-30T17:14:13.814Z,97467.25
2023-04-30T17:16:40.428Z,97478.34
2023-04-30T17:19:06.991Z,97477.47
2023-04-30T17:21:33.569Z,97477.13
2023-04-30T17:24:00.148Z,97476.88
2023-04-30T17:26:26.761Z,97478.50
2023-04-30T17:28:53.343Z,97482.00
2023-04-30T17:31:20.018Z,97484.47
2023-04-30T17:33:47.149Z,97489.25
2023-04-30T17:36:13.726Z,97488.41
2023-04-30T17:38:40.335Z,97499.91
2023-04-30T17:41:06.981Z,97502.72
2023-04-30T17:43:33.579Z,97501.69
2023-04-30T17:46:00.258Z,97510.59
2023-04-30T17:48:26.919Z,97517.97
2023-04-30T17:50:53.478Z,97508.38
2023-04-30T17:53:20.050Z,97510.25
2023-04-30T17:55:46.946Z,97515.38
2023-04-30T17:58:13.548Z,97518.94
2023-04-30T18:00:40.191Z,97518.94
2023-04-30T18:03:06.921Z,97519.66
2023-04-30T18:05:35.292Z,97525.31
2023-04-30T18:08:02.309Z,97529.91
2023-04-30T18:10:28.878Z,97528.22
2023-04-30T18:12:55.486Z,97527.28
2023-04-30T18:15:22.069Z,97536.81
2023-04-30T18:17:48.749Z,97536.91
2023-04-30T18:20:15.374Z,97544.25
2023-04-30T18:22:41.965Z,97545.03
2023-04-30T18:25:08.646Z,97542.88
2023-04-30T18:27:35.220Z,97551.56
2023-04-30T18:30:01.828Z,97549.38
2023-04-30T18:32:28.404Z,97549.63
2023-04-30T18:34:54.986Z,97553.16
2023-04-30T18:37:21.657Z,97553.66
2023-04-30T18:39:48.219Z,97564.38
2023-04-30T18:42:14.881Z,97557.22
2023-04-30T18:44:41.623Z,97564.91
2023-04-30T18:47:08.259Z,97564.22
2023-04-30T18:49:34.835Z,97567.84
2023-04-30T18:52:01.390Z,97566.38
2023-04-30T18:54:28.041Z,97569.50
2023-04-30T18:56:54.669Z,97569.41
2023-04-30T18:59:21.255Z,97573.34
2023-04-30T19:01:47.911Z,97576.03
2023-04-30T19:04:14.517Z,97574.75
2023-04-30T19:06:41.138Z,97579.34
2023-04-30T19:09:07.746Z,97582.13
2023-04-30T19:11:36.685Z,97585.56
2023-04-30T19:14:03.305Z,97590.44
2023-04-30T19:16:29.951Z,97594.13
2023-04-30T19:18:56.613Z,97592.06
2023-04-30T19:21:23.167Z,97599.41
2023-04-30T19:23:49.754Z,97598.69
2023-04-30T19:26:16.402Z,97605.00
2023-04-30T19:28:43.076Z,97606.22
2023-04-30T19:31:09.844Z,97600.66
2023-04-30T19:33:36.600Z,97601.03
2023-04-30T19:36:03.229Z,97608.28
2023-04-30T19:38:29.793Z,97608.00
2023-04-30T19:40:56.389Z,97609.19
2023-04-30T19:43:22.980Z,97610.38
2023-04-30T19:45:49.665Z,97606.81
2023-04-30T19:48:16.372Z,97610.34
2023-04-30T19:50:43.046Z,97614.28
2023-04-30T19:53:09.750Z,97617.38
2023-04-30T19:55:36.316Z,97617.16
2023-04-30T19:58:02.997Z,97618.44
2023-04-30T20:00:29.616Z,97624.25
2023-04-30T20:02:56.261Z,97624.94
2023-04-30T20:05:22.884Z,97629.38
2023-04-30T20:07:49.498Z,97628.97
2023-04-30T20:10:16.050Z,97634.06
2023-04-30T20:12:42.934Z,97631.34
2023-04-30T20:15:09.601Z,97638.91
2023-04-30T20:17:36.213Z,97631.09
2023-04-30T20:20:02.856Z,97635.31
2023-04-30T20:22:29.429Z,97642.34
2023-04-30T20:24:56.036Z,97649.91
2023-04-30T20:27:22.967Z,97644.16
2023-04-30T20:29:49.565Z,97645.59
2023-04-30T20:32:16.296Z,97645.97
2023-04-30T20:34:43.095Z,97653.69
2023-04-30T20:37:09.697Z,97647.38
2023-04-30T20:39:36.382Z,97649.38
2023-04-30T20:42:03.011Z,97647.53
2023-04-30T20:44:29.599Z,97653.88
2023-04-30T20:46:56.273Z,97652.88
2023-04-30T20:49:22.906Z,97648.03
2023-04-30T20:51:49.497Z,97650.09
2023-04-30T20:54:16.089Z,97648.66
2023-04-30T20:56:42.651Z,97656.03
2023-04-30T20:59:09.333Z,97652.53
2023-04-30T21:01:35.952Z,97662.53
2023-04-30T21:04:02.579Z,97667.47
2023-04-30T21:06:29.169Z,97660.53
2023-04-30T21:08:55.847Z,97667.88
2023-04-30T21:11:22.420Z,97672.97
2023-04-30T21:13:50.759Z,97660.75
2023-04-30T21:16:18.270Z,97671.16
2023-04-30T21:18:44.842Z,97674.59
2023-04-30T21:21:11.436Z,97669.31
2023-04-30T21:23:38.182Z,97676.38
2023-04-30T21:26:04.781Z,97671.09
2023-04-30T21:28:31.416Z,97673.13
2023-04-30T21:30:58.133Z,97671.91
2023-04-30T21:33:25.789Z,97670.69
2023-04-30T21:35:52.386Z,97675.59
2023-04-30T21:38:18.965Z,97682.69
2023-04-30T21:40:46.693Z,97678.41
2023-04-30T21:43:13.281Z,97679.63
2023-04-30T21:45:41.468Z,97681.63
2023-04-30T21:48:09.879Z,97692.53
2023-04-30T21:50:36.798Z,97688.09
2023-04-30T21:53:03.435Z,97699.06
2023-04-30T21:55:30.108Z,97687.56
2023-04-30T21:57:56.720Z,97696.84
2023-04-30T22:00:23.312Z,97698.53
2023-04-30T22:02:49.985Z,97689.16
2023-04-30T22:05:16.598Z,97699.91
2023-04-30T22:07:43.551Z,97698.16
2023-04-30T22:10:10.120Z,97688.00
2023-04-30T22:12:37.997Z,97690.03
2023-04-30T22:15:04.553Z,97692.63
2023-04-30T22:17:31.173Z,97705.81
2023-04-30T22:19:58.079Z,97695.47
2023-04-30T22:22:25.047Z,97691.81
2023-04-30T22:24:51.646Z,97694.59
2023-04-30T22:27:18.232Z,97696.47
2023-04-30T22:29:44.822Z,97686.75
2023-04-30T22:32:11.634Z,97698.56
2023-04-30T22:34:38.330Z,97702.78
2023-04-30T22:37:04.909Z,97697.50
2023-04-30T22:39:31.471Z,97695.72
2023-04-30T22:41:58.085Z,97693.50
2023-04-30T22:44:24.693Z,97692.22
2023-04-30T22:46:51.302Z,97696.28
2023-04-30T22:49:30.181Z,97697.66
2023-04-30T22:51:58.032Z,97695.34
2023-04-30T22:54:24.677Z,97698.44
2023-04-30T22:56:51.270Z,97696.91
2023-04-30T22:59:17.874Z,97692.94
2023-04-30T23:01:44.457Z,97689.75
2023-04-30T23:04:11.078Z,97680.25
2023-04-30T23:06:37.776Z,97690.94
2023-04-30T23:09:04.378Z,97684.22
2023-04-30T23:11:30.965Z,97689.22
2023-04-30T23:13:57.531Z,97681.78
2023-04-30T23:16:24.267Z,97683.50
2023-04-30T23:18:51.188Z,97682.63
2023-04-30T23:21:17.816Z,97681.56
2023-04-30T23:23:44.449Z,97687.88
2023-04-30T23:26:11.195Z,97681.06
2023-04-30T23:28:37.801Z,97677.72
2023-04-30T23:31:04.381Z,97678.28
2023-04-30T23:33:30.968Z,97686.84
2023-04-30T23:35:57.783Z,97674.81
2023-04-30T23:38:24.377Z,97679.00
2023-04-30T23:40:51.169Z,97680.09
2023-04-30T23:43:17.756Z,97680.84
2023-04-30T23:45:44.344Z,97679.38
2023-04-30T23:48:10.997Z,97680.56
2023-04-30T23:50:37.604Z,97677.88
2023-04-30T23:53:04.180Z,97668.22
2023-04-30T23:55:30.744Z,97670.53
2023-04-30T23:57:57.373Z,97663.03
